createdAt,value
2022-11-22T00:00:57.708Z,17.70
2022-11-22T00:03:25.813Z,17.80
2022-11-22T00:05:53.866Z,17.80
2022-11-22T00:08:22.025Z,17.80
2022-11-22T00:10:52.342Z,17.70
2022-11-22T00:13:21.213Z,17.70
2022-11-22T00:15:59.296Z,17.10
2022-11-22T00:18:27.400Z,17.70
2022-11-22T00:20:56.215Z,17.70
2022-11-22T00:23:24.357Z,17.60
2022-11-22T00:25:53.785Z,17.60
2022-11-22T00:28:21.912Z,17.60
2022-11-22T00:30:49.975Z,17.60
2022-11-22T00:33:18.092Z,17.60
2022-11-22T00:35:46.551Z,17.60
2022-11-22T00:38:14.646Z,17.60
2022-11-22T00:40:42.709Z,17.60
2022-11-22T00:43:12.158Z,17.60
2022-11-22T00:45:42.028Z,17.60
2022-11-22T00:48:10.425Z,17.60
2022-11-22T00:50:38.490Z,17.50
2022-11-22T00:53:06.587Z,17.50
2022-11-22T00:55:34.686Z,17.50
2022-11-22T00:58:02.775Z,17.50
2022-11-22T01:00:32.315Z,17.50
2022-11-22T01:03:00.419Z,17.50
2022-11-22T01:05:28.462Z,17.50
2022-11-22T01:07:56.613Z,17.40
2022-11-22T01:10:24.752Z,17.40
2022-11-22T01:12:52.836Z,17.40
2022-11-22T01:15:20.964Z,17.40
2022-11-22T01:17:50.385Z,17.40
2022-11-22T01:20:18.558Z,17.30
2022-11-22T01:22:46.751Z,17.20
2022-11-22T01:25:14.829Z,17.40
2022-11-22T01:27:42.951Z,17.30
2022-11-22T01:30:12.566Z,17.30
2022-11-22T01:32:40.611Z,17.30
2022-11-22T01:35:10.885Z,17.40
2022-11-22T01:37:38.985Z,17.30
2022-11-22T01:40:08.498Z,17.40
2022-11-22T01:42:49.882Z,17.40
2022-11-22T01:45:44.100Z,17.30
2022-11-22T01:48:24.621Z,17.30
2022-11-22T01:50:59.095Z,17.40
2022-11-22T01:53:30.887Z,17.40
2022-11-22T01:56:02.002Z,17.00
2022-11-22T01:58:34.120Z,17.30
2022-11-22T02:01:03.058Z,17.30
2022-11-22T02:03:34.175Z,17.20
2022-11-22T02:06:04.543Z,17.20
2022-11-22T02:08:39.003Z,17.20
2022-11-22T02:11:09.480Z,17.20
2022-11-22T02:13:41.693Z,17.20
2022-11-22T02:16:11.449Z,17.20
2022-11-22T02:18:39.995Z,17.20
2022-11-22T02:21:10.036Z,17.20
2022-11-22T02:23:45.944Z,17.20
2022-11-22T02:26:16.040Z,17.30
2022-11-22T02:28:44.094Z,17.20
2022-11-22T02:31:34.729Z,17.20
2022-11-22T02:34:02.818Z,17.20
2022-11-22T02:36:34.486Z,17.40
2022-11-22T02:39:02.842Z,17.20
2022-11-22T02:41:33.810Z,17.20
2022-11-22T02:44:02.079Z,17.20
2022-11-22T02:46:30.109Z,17.20
2022-11-22T02:48:58.190Z,17.20
2022-11-22T02:51:26.563Z,17.20
2022-11-22T02:53:56.809Z,17.20
2022-11-22T02:56:24.978Z,17.20
2022-11-22T02:58:54.381Z,17.20
2022-11-22T03:01:22.477Z,17.20
2022-11-22T03:03:50.515Z,17.20
2022-11-22T03:06:18.586Z,17.10
2022-11-22T03:08:51.881Z,17.20
2022-11-22T03:11:24.291Z,17.10
2022-11-22T03:13:52.411Z,17.10
2022-11-22T03:16:21.889Z,17.10
2022-11-22T03:18:49.974Z,17.10
2022-11-22T03:21:18.024Z,17.10
2022-11-22T03:23:46.063Z,17.10
2022-11-22T03:26:14.164Z,17.20
2022-11-22T03:28:42.329Z,17.20
2022-11-22T03:31:10.466Z,17.20
2022-11-22T03:33:39.881Z,17.20
2022-11-22T03:36:08.069Z,17.20
2022-11-22T03:38:36.372Z,17.20
2022-11-22T03:41:04.498Z,17.20
2022-11-22T03:43:32.561Z,17.20
2022-11-22T03:46:00.643Z,17.20
2022-11-22T03:48:28.702Z,17.20
2022-11-22T03:51:04.629Z,17.10
2022-11-22T03:53:33.537Z,17.10
2022-11-22T03:56:02.032Z,17.10
2022-11-22T03:58:30.102Z,17.10
2022-11-22T04:00:58.588Z,17.10
2022-11-22T04:03:27.084Z,17.10
2022-11-22T04:05:55.426Z,17.20
2022-11-22T04:08:25.186Z,17.20
2022-11-22T04:10:53.716Z,17.20
2022-11-22T04:13:21.767Z,17.20
2022-11-22T04:15:48.818Z,17.30
2022-11-22T04:18:16.864Z,17.20
2022-11-22T04:21:02.412Z,17.20
2022-11-22T04:23:34.305Z,17.30
2022-11-22T04:26:02.616Z,17.40
2022-11-22T04:29:01.527Z,17.50
2022-11-22T04:31:36.200Z,17.60
2022-11-22T04:34:04.263Z,17.70
2022-11-22T04:36:32.350Z,17.70
2022-11-22T04:39:01.749Z,17.60
2022-11-22T04:41:29.834Z,17.60
2022-11-22T04:44:15.595Z,17.60
2022-11-22T04:46:43.658Z,17.60
2022-11-22T04:49:11.708Z,17.60
2022-11-22T04:51:57.234Z,17.60
2022-11-22T04:54:26.803Z,17.60
2022-11-22T04:56:54.850Z,17.60
2022-11-22T04:59:22.916Z,17.60
2022-11-22T05:01:50.974Z,17.60
2022-11-22T05:04:19.005Z,17.70
2022-11-22T05:06:47.071Z,17.70
2022-11-22T05:09:15.196Z,17.70
2022-11-22T05:11:44.711Z,17.70
2022-11-22T05:14:12.932Z,17.70
2022-11-22T05:16:41.019Z,17.70
2022-11-22T05:19:09.197Z,17.70
2022-11-22T05:21:37.472Z,17.70
2022-11-22T05:24:05.106Z,17.70
2022-11-22T05:26:35.264Z,17.80
2022-11-22T05:29:07.409Z,17.80
2022-11-22T05:31:36.903Z,17.80
2022-11-22T05:34:05.539Z,17.80
2022-11-22T05:36:34.432Z,17.80
2022-11-22T05:39:03.239Z,17.80
2022-11-22T05:41:31.416Z,17.80
2022-11-22T05:43:59.593Z,17.80
2022-11-22T05:46:30.824Z,17.80
2022-11-22T05:48:59.741Z,17.80
2022-11-22T05:51:34.637Z,17.80
2022-11-22T05:54:03.470Z,17.80
2022-11-22T05:56:31.550Z,17.80
2022-11-22T05:58:59.657Z,17.80
2022-11-22T06:01:29.093Z,17.80
2022-11-22T06:03:57.172Z,17.80
2022-11-22T06:06:25.219Z,17.80
2022-11-22T06:08:53.409Z,17.80
2022-11-22T06:11:23.399Z,17.80
2022-11-22T06:13:52.033Z,17.80
2022-11-22T06:16:20.113Z,17.80
2022-11-22T06:18:49.943Z,17.80
2022-11-22T06:21:20.195Z,18.00
2022-11-22T06:23:48.281Z,18.20
2022-11-22T06:26:17.796Z,18.30
2022-11-22T06:28:46.836Z,18.40
2022-11-22T06:31:16.684Z,18.50
2022-11-22T06:33:45.272Z,18.60
2022-11-22T06:36:16.402Z,18.60
2022-11-22T06:38:45.408Z,18.70
2022-11-22T06:41:15.349Z,18.70
2022-11-22T06:43:48.681Z,18.70
2022-11-22T06:46:18.540Z,18.70
2022-11-22T06:48:46.978Z,18.70
2022-11-22T06:51:18.537Z,18.70
2022-11-22T06:53:48.749Z,18.80
2022-11-22T06:56:18.716Z,18.80
2022-11-22T06:58:48.338Z,18.80
2022-11-22T07:01:19.468Z,18.80
2022-11-22T07:03:48.407Z,18.60
2022-11-22T07:06:19.889Z,18.40
2022-11-22T07:08:48.737Z,18.20
2022-11-22T07:11:18.744Z,18.00
2022-11-22T07:13:47.013Z,17.90
2022-11-22T07:16:16.550Z,17.80
2022-11-22T07:18:45.096Z,17.80
2022-11-22T07:21:14.706Z,17.70
2022-11-22T07:23:46.264Z,17.70
2022-11-22T07:26:15.968Z,17.70
2022-11-22T07:28:45.786Z,17.70
2022-11-22T07:31:15.633Z,17.70
2022-11-22T07:33:44.254Z,17.70
2022-11-22T07:36:14.098Z,17.70
2022-11-22T07:38:44.044Z,17.70
2022-11-22T07:41:12.149Z,17.70
2022-11-22T07:43:40.261Z,17.40
2022-11-22T07:46:12.699Z,17.20
2022-11-22T07:48:40.726Z,17.10
2022-11-22T07:51:09.660Z,17.20
2022-11-22T07:53:37.704Z,17.30
2022-11-22T07:56:08.031Z,17.40
2022-11-22T07:58:37.567Z,17.60
2022-11-22T08:01:07.472Z,17.80
2022-11-22T08:03:35.729Z,17.90
2022-11-22T08:06:05.999Z,18.00
2022-11-22T08:08:34.386Z,18.20
2022-11-22T08:11:02.680Z,18.30
2022-11-22T08:13:32.687Z,18.40
2022-11-22T08:16:05.445Z,18.50
2022-11-22T08:18:34.179Z,18.50
2022-11-22T08:21:10.020Z,18.40
2022-11-22T08:23:39.398Z,18.30
2022-11-22T08:26:08.865Z,18.40
2022-11-22T08:28:38.265Z,18.50
2022-11-22T08:31:09.592Z,18.70
2022-11-22T08:33:37.676Z,18.70
2022-11-22T08:36:06.908Z,18.70
2022-11-22T08:38:35.962Z,18.80
2022-11-22T08:41:05.059Z,18.80
2022-11-22T08:43:33.730Z,18.80
2022-11-22T08:46:03.333Z,18.90
2022-11-22T08:48:33.751Z,18.90
2022-11-22T08:51:03.839Z,19.00
2022-11-22T08:53:32.913Z,18.80
2022-11-22T08:56:01.926Z,18.60
2022-11-22T08:58:31.455Z,18.70
2022-11-22T09:01:06.645Z,18.70
2022-11-22T09:03:35.802Z,18.80
2022-11-22T09:09:15.095Z,19.00
2022-11-22T09:11:40.999Z,19.00
2022-11-22T09:14:09.040Z,19.30
2022-11-22T09:16:38.496Z,19.60
2022-11-22T09:19:06.574Z,20.00
2022-11-22T09:21:34.635Z,19.90
2022-11-22T09:24:02.935Z,19.80
2022-11-22T09:26:31.006Z,19.50
2022-11-22T09:28:59.081Z,19.50
2022-11-22T09:31:27.280Z,19.50
2022-11-22T09:33:56.673Z,19.40
2022-11-22T09:36:26.942Z,19.20
2022-11-22T09:38:56.171Z,19.70
2022-11-22T09:41:56.911Z,20.20
2022-11-22T09:44:36.923Z,20.70
2022-11-22T09:47:11.165Z,21.30
2022-11-22T09:49:49.719Z,21.60
2022-11-22T09:52:24.275Z,21.90
2022-11-22T09:54:56.771Z,22.00
2022-11-22T09:57:28.490Z,21.80
2022-11-22T10:00:03.866Z,21.60
2022-11-22T10:02:58.981Z,21.30
2022-11-22T10:05:33.117Z,20.90
2022-11-22T10:08:06.063Z,20.90
2022-11-22T10:10:40.821Z,21.20
2022-11-22T10:13:16.758Z,21.70
2022-11-22T10:15:51.111Z,22.30
2022-11-22T10:18:24.920Z,22.60
2022-11-22T10:20:54.926Z,22.60
2022-11-22T10:23:23.488Z,22.70
2022-11-22T10:25:58.682Z,23.10
2022-11-22T10:28:34.739Z,23.60
2022-11-22T10:31:08.943Z,23.70
2022-11-22T10:33:44.702Z,23.80
2022-11-22T10:39:22.231Z,23.60
2022-11-22T10:42:10.230Z,23.80
2022-11-22T10:44:48.540Z,24.10
2022-11-22T10:47:22.310Z,24.50
2022-11-22T10:50:02.038Z,24.70
2022-11-22T10:52:38.721Z,24.50
2022-11-22T10:55:23.901Z,24.40
2022-11-22T10:58:00.470Z,24.20
2022-11-22T11:00:32.248Z,24.30
2022-11-22T11:03:07.243Z,24.60
2022-11-22T11:05:54.957Z,25.00
2022-11-22T11:09:02.641Z,25.20
2022-11-22T11:11:27.915Z,25.30
2022-11-22T11:13:59.321Z,25.30
2022-11-22T11:16:32.083Z,25.00
2022-11-22T11:19:08.209Z,24.80
2022-11-22T11:21:37.687Z,24.90
2022-11-22T11:24:13.967Z,24.90
2022-11-22T11:26:44.014Z,24.30
2022-11-22T11:29:38.513Z,24.30
2022-11-22T11:32:14.664Z,24.40
2022-11-22T11:34:49.130Z,24.40
2022-11-22T11:37:26.195Z,24.40
2022-11-22T11:39:55.611Z,24.50
2022-11-22T11:42:27.021Z,24.80
2022-11-22T11:44:56.114Z,25.10
2022-11-22T11:47:34.958Z,25.30
2022-11-22T11:50:03.025Z,25.40
2022-11-22T11:52:31.724Z,25.50
2022-11-22T11:55:03.122Z,25.60
2022-11-22T11:57:34.910Z,25.80
2022-11-22T12:00:05.345Z,25.70
2022-11-22T12:02:39.912Z,25.80
2022-11-22T12:05:25.317Z,25.50
2022-11-22T12:07:53.493Z,25.30
2022-11-22T12:10:32.407Z,25.30
2022-11-22T12:13:06.505Z,24.40
2022-11-22T12:15:44.398Z,23.60
2022-11-22T12:18:28.766Z,22.70
2022-11-22T12:21:05.043Z,22.10
2022-11-22T12:23:44.386Z,21.50
2022-11-22T12:26:16.396Z,21.30
2022-11-22T12:28:44.800Z,21.00
2022-11-22T12:31:26.520Z,20.80
2022-11-22T12:33:57.487Z,20.70
2022-11-22T12:36:32.932Z,20.30
2022-11-22T12:39:04.122Z,20.00
2022-11-22T12:41:35.272Z,19.90
2022-11-22T12:44:06.051Z,20.00
2022-11-22T12:46:40.727Z,20.10
2022-11-22T12:49:16.574Z,20.20
2022-11-22T12:51:48.569Z,20.20
2022-11-22T12:54:21.059Z,20.20
2022-11-22T12:56:54.428Z,20.20
2022-11-22T12:59:30.423Z,20.20
2022-11-22T13:02:06.117Z,20.30
2022-11-22T13:04:46.599Z,20.30
2022-11-22T13:07:20.009Z,20.40
2022-11-22T13:09:56.385Z,22.10
2022-11-22T13:12:30.855Z,23.10
2022-11-22T13:15:00.236Z,23.40
2022-11-22T13:17:34.007Z,22.90
2022-11-22T13:20:07.986Z,22.70
2022-11-22T13:22:52.971Z,23.20
2022-11-22T13:25:46.545Z,21.90
2022-11-22T13:28:19.806Z,21.80
2022-11-22T13:31:06.862Z,21.40
2022-11-22T13:33:36.515Z,21.10
2022-11-22T13:36:46.054Z,20.80
2022-11-22T13:39:19.989Z,20.70
2022-11-22T13:42:01.451Z,20.40
2022-11-22T13:44:39.634Z,20.30
2022-11-22T13:47:46.198Z,19.70
2022-11-22T13:50:56.859Z,20.10
2022-11-22T13:53:35.551Z,20.20
2022-11-22T13:56:40.681Z,20.30
2022-11-22T13:59:16.571Z,20.10
2022-11-22T14:02:02.078Z,19.50
2022-11-22T14:04:44.749Z,19.20
2022-11-22T14:07:35.891Z,19.60
2022-11-22T14:10:06.160Z,19.40
2022-11-22T14:13:13.626Z,19.40
2022-11-22T14:15:54.991Z,19.80
2022-11-22T14:18:44.869Z,19.30
2022-11-22T14:21:18.629Z,19.40
2022-11-22T14:24:02.702Z,19.30
2022-11-22T14:26:37.739Z,19.40
2022-11-22T14:29:37.097Z,19.80
2022-11-22T14:32:15.165Z,19.70
2022-11-22T14:35:22.442Z,19.80
2022-11-22T14:38:32.872Z,19.90
2022-11-22T14:41:46.458Z,19.90
2022-11-22T14:44:20.099Z,19.70
2022-11-22T14:46:54.500Z,19.70
2022-11-22T14:49:32.893Z,19.70
2022-11-22T14:52:03.565Z,19.70
2022-11-22T14:54:41.634Z,19.80
2022-11-22T14:57:15.860Z,19.70
2022-11-22T15:00:18.197Z,19.60
2022-11-22T15:03:28.992Z,19.50
2022-11-22T15:09:17.449Z,19.40
2022-11-22T15:09:42.103Z,19.40
2022-11-22T15:12:35.622Z,19.20
2022-11-22T15:59:14.566Z,19.10
2022-11-22T16:01:45.177Z,19.10
2022-11-22T16:04:23.049Z,19.00
2022-11-22T16:06:52.790Z,19.00
2022-11-22T16:09:33.217Z,19.00
2022-11-22T16:12:03.075Z,18.90
2022-11-22T16:14:47.542Z,18.90
2022-11-22T16:17:27.980Z,18.90
2022-11-22T16:20:26.939Z,18.80
2022-11-22T16:23:19.825Z,18.60
2022-11-22T16:25:49.957Z,18.20
2022-11-22T16:28:27.969Z,18.10
2022-11-22T16:30:59.163Z,18.10
2022-11-22T16:33:27.635Z,18.10
2022-11-22T16:35:57.342Z,18.20
2022-11-22T16:38:26.616Z,18.20
2022-11-22T16:40:57.351Z,18.30
2022-11-22T16:43:27.004Z,18.40
2022-11-22T16:45:55.205Z,18.40
2022-11-22T16:48:33.932Z,18.50
2022-11-22T16:51:05.185Z,18.50
2022-11-22T16:53:41.407Z,18.50
2022-11-22T16:56:10.130Z,18.60
2022-11-22T16:58:38.222Z,18.60
2022-11-22T17:01:06.429Z,18.60
2022-11-22T17:03:39.445Z,18.60
2022-11-22T17:06:07.923Z,18.70
2022-11-22T17:08:36.088Z,18.60
2022-11-22T17:11:04.134Z,18.70
2022-11-22T17:13:32.212Z,18.70
2022-11-22T17:16:00.241Z,18.70
2022-11-22T17:18:28.402Z,18.70
2022-11-22T17:20:57.933Z,18.70
2022-11-22T17:23:29.190Z,18.70
2022-11-22T17:25:57.287Z,18.70
2022-11-22T17:28:25.449Z,18.70
2022-11-22T17:30:53.832Z,18.70
2022-11-22T17:33:22.005Z,18.70
2022-11-22T17:35:50.024Z,18.70
2022-11-22T17:38:19.676Z,18.70
2022-11-22T17:40:50.078Z,18.70
2022-11-22T17:43:18.220Z,18.70
2022-11-22T17:45:46.477Z,18.70
2022-11-22T17:48:14.600Z,18.70
2022-11-22T17:50:42.667Z,18.70
2022-11-22T17:53:11.017Z,18.70
2022-11-22T17:56:08.864Z,18.70
2022-11-22T17:58:29.196Z,18.70
2022-11-22T18:01:04.522Z,18.70
2022-11-22T18:03:32.984Z,18.60
2022-11-22T18:06:01.140Z,18.70
2022-11-22T18:08:29.573Z,18.70
2022-11-22T18:11:00.750Z,18.60
2022-11-22T18:13:30.498Z,18.70
2022-11-22T18:16:03.505Z,18.70
2022-11-22T18:21:20.170Z,18.70
2022-11-22T18:23:48.300Z,18.70
2022-11-22T18:31:54.263Z,18.60
2022-11-22T18:34:22.882Z,18.70
2022-11-22T18:37:06.957Z,18.60
2022-11-22T18:39:37.697Z,18.60
2022-11-22T18:42:09.958Z,18.60
2022-11-22T18:44:38.033Z,18.60
2022-11-22T18:47:06.219Z,18.60
2022-11-22T18:49:35.108Z,18.60
2022-11-22T18:52:03.524Z,18.60
2022-11-22T18:54:31.994Z,18.50
2022-11-22T18:57:00.229Z,18.50
2022-11-22T18:59:29.692Z,18.50
2022-11-22T19:01:57.766Z,18.50
2022-11-22T19:04:25.821Z,18.50
2022-11-22T19:06:55.439Z,18.50
2022-11-22T19:09:23.535Z,18.50
2022-11-22T19:11:58.175Z,18.50
2022-11-22T19:14:29.085Z,18.50
2022-11-22T19:16:58.978Z,18.50
2022-11-22T19:19:27.690Z,18.50
2022-11-22T19:21:55.758Z,18.50
2022-11-22T19:24:23.874Z,18.50
2022-11-22T19:26:52.058Z,18.50
2022-11-22T19:29:20.572Z,18.50
2022-11-22T19:31:48.793Z,18.50
2022-11-22T19:34:18.240Z,18.50
2022-11-22T19:36:46.296Z,18.50
2022-11-22T19:39:15.823Z,18.40
2022-11-22T19:41:45.207Z,18.20
2022-11-22T19:44:13.373Z,17.90
2022-11-22T19:46:41.632Z,17.70
2022-11-22T19:49:10.487Z,17.70
2022-11-22T19:51:40.059Z,17.80
2022-11-22T19:54:08.518Z,17.80
2022-11-22T19:56:38.986Z,17.90
2022-11-22T19:59:10.405Z,17.90
2022-11-22T20:01:39.665Z,18.00
2022-11-22T20:04:08.550Z,18.10
2022-11-22T20:06:38.868Z,18.10
2022-11-22T20:09:10.329Z,18.20
2022-11-22T20:11:39.727Z,18.40
2022-11-22T20:14:09.340Z,18.50
2022-11-22T20:16:39.228Z,18.50
2022-11-22T20:19:09.619Z,18.50
2022-11-22T20:21:40.148Z,18.50
2022-11-22T20:24:08.742Z,18.50
2022-11-22T20:26:37.383Z,18.50
2022-11-22T20:29:07.710Z,18.40
2022-11-22T20:31:37.950Z,18.40
2022-11-22T20:34:06.303Z,18.40
2022-11-22T20:36:36.023Z,18.40
2022-11-22T20:39:10.356Z,18.40
2022-11-22T20:41:40.521Z,18.40
2022-11-22T20:44:12.072Z,18.30
2022-11-22T20:46:41.079Z,18.30
2022-11-22T20:49:09.239Z,18.40
2022-11-22T20:51:39.739Z,18.30
2022-11-22T20:54:10.384Z,18.40
2022-11-22T20:56:39.101Z,18.40
2022-11-22T20:59:07.320Z,18.40
2022-11-22T21:01:35.578Z,18.30
2022-11-22T21:04:03.963Z,18.30
2022-11-22T21:06:32.909Z,18.40
2022-11-22T21:09:01.007Z,18.40
2022-11-22T21:11:31.038Z,18.40
2022-11-22T21:13:59.144Z,18.30
2022-11-22T21:16:28.849Z,18.40
2022-11-22T21:18:58.389Z,18.40
2022-11-22T21:21:26.949Z,18.30
2022-11-22T21:23:56.261Z,18.30
2022-11-22T21:26:25.459Z,18.30
2022-11-22T21:28:55.017Z,18.30
2022-11-22T21:31:23.997Z,18.20
2022-11-22T21:33:52.642Z,18.20
2022-11-22T21:36:21.738Z,18.20
2022-11-22T21:38:49.963Z,18.20
2022-11-22T21:44:11.256Z,18.10
2022-11-22T21:46:39.859Z,18.10
2022-11-22T21:49:08.181Z,18.10
2022-11-22T21:51:36.339Z,18.10
2022-11-22T21:54:05.618Z,18.10
2022-11-22T21:56:33.906Z,18.10
2022-11-22T21:59:02.256Z,18.00
2022-11-22T22:01:32.073Z,18.00
2022-11-22T22:04:00.208Z,17.90
2022-11-22T22:06:28.306Z,17.90
2022-11-22T22:08:56.529Z,17.80
2022-11-22T22:11:24.719Z,17.80
2022-11-22T22:13:54.238Z,17.70
2022-11-22T22:16:23.784Z,17.70
2022-11-22T22:18:53.984Z,17.70
2022-11-22T22:21:22.346Z,17.70
2022-11-22T22:23:50.404Z,17.60
2022-11-22T22:26:19.041Z,17.70
2022-11-22T22:28:47.430Z,17.70
2022-11-22T22:31:21.436Z,17.80
2022-11-22T22:33:51.019Z,17.90
2022-11-22T22:36:20.850Z,17.90
2022-11-22T22:38:49.244Z,17.80
2022-11-22T22:41:17.928Z,17.80
2022-11-22T22:43:47.641Z,17.80
2022-11-22T22:46:18.107Z,17.70
2022-11-22T22:48:46.893Z,17.70
2022-11-22T22:51:17.211Z,17.70
2022-11-22T22:53:47.375Z,17.60
2022-11-22T22:56:16.949Z,17.60
2022-11-22T22:58:45.487Z,17.60
2022-11-22T23:01:17.456Z,17.60
2022-11-22T23:03:48.849Z,17.60
2022-11-22T23:06:17.718Z,17.60
2022-11-22T23:08:48.545Z,17.60
2022-11-22T23:11:18.343Z,17.60
2022-11-22T23:13:46.548Z,17.60
2022-11-22T23:16:16.083Z,17.60
2022-11-22T23:18:45.656Z,17.60
2022-11-22T23:21:16.261Z,17.60
2022-11-22T23:23:44.323Z,17.60
2022-11-22T23:26:14.335Z,17.60
2022-11-22T23:28:42.222Z,17.60
2022-11-22T23:31:12.288Z,17.60
2022-11-22T23:33:40.186Z,17.60
2022-11-22T23:36:10.938Z,17.60
2022-11-22T23:38:39.140Z,17.60
2022-11-22T23:41:07.589Z,17.60
2022-11-22T23:43:36.993Z,17.60
2022-11-22T23:46:05.330Z,17.50
2022-11-22T23:48:33.393Z,17.50
2022-11-22T23:51:04.776Z,17.50
2022-11-22T23:53:32.831Z,17.50
2022-11-22T23:56:06.182Z,17.50
2022-11-22T23:58:34.280Z,17.50
